createdAt,value
2023-04-17T00:02:42.022Z,18.15
2023-04-17T00:05:46.978Z,18.14
2023-04-17T00:08:50.580Z,18.10
2023-04-17T00:11:53.995Z,17.64
2023-04-17T00:14:57.342Z,17.71
2023-04-17T00:18:00.870Z,16.96
2023-04-17T00:21:04.344Z,17.20
2023-04-17T00:24:08.227Z,17.18
2023-04-17T00:27:11.820Z,17.48
2023-04-17T00:30:15.466Z,17.23
2023-04-17T00:33:18.891Z,17.48
2023-04-17T00:36:22.533Z,17.49
2023-04-17T00:39:26.644Z,16.82
2023-04-17T00:42:30.196Z,17.56
2023-04-17T00:49:28.454Z,17.73
2023-04-17T00:52:32.315Z,18.58
2023-04-17T00:55:38.965Z,18.77
2023-04-17T00:58:42.555Z,18.35
2023-04-17T01:01:46.549Z,16.90
2023-04-17T01:04:50.415Z,18.81
2023-04-17T01:07:55.209Z,20.46
2023-04-17T01:10:58.880Z,20.21
2023-04-17T01:14:02.522Z,20.64
2023-04-17T01:17:07.047Z,21.37
2023-04-17T01:20:13.096Z,21.61
2023-04-17T01:23:17.118Z,21.85
2023-04-17T01:26:22.832Z,22.01
2023-04-17T01:29:26.708Z,21.42
2023-04-17T01:32:31.543Z,21.07
2023-04-17T01:35:35.622Z,20.37
2023-04-17T01:38:39.572Z,20.50
2023-04-17T01:41:43.038Z,20.48
2023-04-17T01:44:46.699Z,20.87
2023-04-17T01:47:52.953Z,21.77
2023-04-17T01:50:56.513Z,20.51
2023-04-17T01:54:00.565Z,21.60
2023-04-17T01:57:04.069Z,20.60
2023-04-17T02:00:08.748Z,21.10
2023-04-17T02:03:15.636Z,21.40
2023-04-17T02:06:19.253Z,23.34
2023-04-17T02:09:23.133Z,21.36
2023-04-17T02:12:26.652Z,22.04
2023-04-17T02:15:30.045Z,21.59
2023-04-17T02:18:33.649Z,21.75
2023-04-17T02:21:37.368Z,20.53
2023-04-17T02:24:41.423Z,20.47
2023-04-17T02:27:44.948Z,20.36
2023-04-17T02:30:48.426Z,20.02
2023-04-17T02:33:52.902Z,20.14
2023-04-17T02:36:56.581Z,21.32
2023-04-17T02:40:00.509Z,21.06
2023-04-17T02:43:03.991Z,22.07
2023-04-17T02:46:07.669Z,20.78
2023-04-17T02:49:11.880Z,20.41
2023-04-17T02:52:16.460Z,21.10
2023-04-17T02:55:20.233Z,20.93
2023-04-17T02:58:23.690Z,21.62
2023-04-17T03:01:27.584Z,20.42
2023-04-17T03:04:31.266Z,20.60
2023-04-17T03:07:37.435Z,21.16
2023-04-17T03:10:43.189Z,20.79
2023-04-17T03:13:46.742Z,20.80
2023-04-17T03:16:50.581Z,20.66
2023-04-17T03:19:54.177Z,21.14
2023-04-17T03:22:57.661Z,21.30
2023-04-17T03:26:01.794Z,21.27
2023-04-17T03:29:08.202Z,21.51
2023-04-17T03:32:12.108Z,23.00
2023-04-17T03:35:15.722Z,21.17
2023-04-17T03:38:20.117Z,21.09
2023-04-17T03:41:23.718Z,21.20
2023-04-17T03:44:27.451Z,21.63
2023-04-17T03:47:34.082Z,19.87
2023-04-17T03:50:37.856Z,20.48
2023-04-17T03:53:41.552Z,20.19
2023-04-17T03:56:47.972Z,22.07
2023-04-17T03:59:51.666Z,19.85
2023-04-17T04:02:59.644Z,19.82
2023-04-17T04:06:13.681Z,20.70
2023-04-17T04:09:22.054Z,20.12
2023-04-17T04:12:26.865Z,20.58
2023-04-17T04:15:30.235Z,20.87
2023-04-17T04:18:37.951Z,21.28
2023-04-17T04:21:44.198Z,21.20
2023-04-17T04:24:49.547Z,20.37
2023-04-17T04:27:57.027Z,19.37
2023-04-17T04:31:05.642Z,20.77
2023-04-17T04:34:18.124Z,19.89
2023-04-17T04:37:30.762Z,19.65
2023-04-17T04:40:44.601Z,18.86
2023-04-17T04:43:48.323Z,19.73
2023-04-17T04:46:56.265Z,19.62
2023-04-17T04:50:03.108Z,18.40
2023-04-17T04:53:19.887Z,18.92
2023-04-17T04:56:32.364Z,19.79
2023-04-17T04:59:38.977Z,20.11
2023-04-17T05:03:07.311Z,20.16
2023-04-17T05:06:12.202Z,19.99
2023-04-17T05:09:20.592Z,19.46
2023-04-17T05:12:25.473Z,19.53
2023-04-17T05:15:29.054Z,18.77
2023-04-17T05:18:32.917Z,19.06
2023-04-17T05:21:37.091Z,18.76
2023-04-17T05:24:40.764Z,18.63
2023-04-17T05:27:44.378Z,18.34
2023-04-17T05:30:48.810Z,18.47
2023-04-17T05:33:58.702Z,19.00
2023-04-17T05:37:04.786Z,19.25
2023-04-17T05:40:09.098Z,18.32
2023-04-17T05:43:13.892Z,18.50
2023-04-17T05:46:17.578Z,18.68
2023-04-17T05:49:23.296Z,18.59
2023-04-17T05:52:26.889Z,19.25
2023-04-17T05:55:30.760Z,19.78
2023-04-17T05:58:37.624Z,20.55
2023-04-17T06:01:42.190Z,20.38
2023-04-17T06:04:46.498Z,18.81
2023-04-17T06:07:51.026Z,19.07
2023-04-17T06:10:57.300Z,19.66
2023-04-17T06:14:01.033Z,17.85
2023-04-17T06:17:04.682Z,18.71
2023-04-17T06:20:13.285Z,18.67
2023-04-17T06:23:17.414Z,19.24
2023-04-17T06:26:20.868Z,19.14
2023-04-17T06:29:26.751Z,19.72
2023-04-17T06:32:30.459Z,19.10
2023-04-17T06:35:41.172Z,19.58
2023-04-17T06:39:01.467Z,20.07
2023-04-17T06:42:07.203Z,19.43
2023-04-17T06:45:15.320Z,19.27
2023-04-17T06:48:34.106Z,20.03
2023-04-17T06:51:37.575Z,20.21
2023-04-17T06:54:41.124Z,19.80
2023-04-17T06:57:44.541Z,19.68
2023-04-17T07:00:48.770Z,19.08
2023-04-17T07:03:52.407Z,19.61
2023-04-17T07:06:56.042Z,20.79
2023-04-17T07:10:01.170Z,18.17
2023-04-17T07:13:04.884Z,18.99
2023-04-17T07:16:10.066Z,18.75
2023-04-17T07:19:14.323Z,18.91
2023-04-17T07:22:17.968Z,18.37
2023-04-17T07:25:21.684Z,18.66
2023-04-17T07:28:26.007Z,18.90
2023-04-17T07:31:37.237Z,18.58
2023-04-17T07:34:43.050Z,17.73
2023-04-17T07:37:46.535Z,17.69
2023-04-17T07:40:49.804Z,17.91
2023-04-17T07:43:53.085Z,18.27
2023-04-17T07:46:56.535Z,18.19
2023-04-17T07:49:59.843Z,18.97
2023-04-17T07:53:03.199Z,18.63
2023-04-17T07:56:07.381Z,18.42
2023-04-17T07:59:11.352Z,18.46
2023-04-17T08:02:16.655Z,17.38
2023-04-17T08:05:20.198Z,18.55
2023-04-17T08:08:24.476Z,17.11
2023-04-17T08:11:27.682Z,16.61
2023-04-17T08:14:31.063Z,17.03
2023-04-17T08:17:34.832Z,17.09
2023-04-17T08:20:38.247Z,17.46
2023-04-17T08:23:42.518Z,16.29
2023-04-17T08:26:45.801Z,17.09
2023-04-17T08:29:49.227Z,16.87
2023-04-17T08:32:52.966Z,16.28
2023-04-17T08:35:56.311Z,17.20
2023-04-17T08:38:59.659Z,16.99
2023-04-17T08:42:19.196Z,16.82
2023-04-17T08:45:27.430Z,17.49
2023-04-17T08:48:32.422Z,17.88
2023-04-17T08:51:36.167Z,17.77
2023-04-17T08:54:40.204Z,17.17
2023-04-17T08:58:04.512Z,16.80
2023-04-17T09:01:13.962Z,16.98
2023-04-17T09:04:36.784Z,16.78
2023-04-17T09:07:41.547Z,16.78
2023-04-17T09:10:47.078Z,16.68
2023-04-17T09:13:50.620Z,17.53
2023-04-17T09:16:58.522Z,17.79
2023-04-17T09:20:08.146Z,17.67
2023-04-17T09:23:11.672Z,17.27
2023-04-17T09:26:17.004Z,18.09
2023-04-17T09:29:20.847Z,18.00
2023-04-17T09:32:24.394Z,17.81
2023-04-17T09:35:28.060Z,18.47
2023-04-17T09:38:38.860Z,18.75
2023-04-17T09:41:42.449Z,18.90
2023-04-17T09:44:45.837Z,18.90
2023-04-17T09:47:49.720Z,19.53
2023-04-17T09:50:53.449Z,19.22
2023-04-17T09:53:59.736Z,19.05
2023-04-17T09:57:04.414Z,20.18
2023-04-17T10:00:12.858Z,18.86
2023-04-17T10:03:18.715Z,20.17
2023-04-17T10:06:22.326Z,19.03
2023-04-17T10:09:25.794Z,19.30
2023-04-17T10:12:30.394Z,18.85
2023-04-17T10:15:41.367Z,17.93
2023-04-17T10:18:44.720Z,17.89
2023-04-17T10:21:51.470Z,17.82
2023-04-17T10:25:13.535Z,17.65
2023-04-17T10:28:50.802Z,16.17
2023-04-17T10:32:24.915Z,16.24
2023-04-17T10:35:28.138Z,16.43
2023-04-17T10:38:37.588Z,17.02
2023-04-17T10:42:05.560Z,16.62
2023-04-17T10:45:20.336Z,17.05
2023-04-17T10:48:46.263Z,17.14
2023-04-17T10:51:49.622Z,17.01
2023-04-17T10:55:16.677Z,16.85
2023-04-17T10:58:20.181Z,16.96
2023-04-17T11:01:43.897Z,17.45
2023-04-17T11:04:47.475Z,18.51
2023-04-17T11:07:53.765Z,18.70
2023-04-17T11:11:00.107Z,18.24
2023-04-17T11:14:12.878Z,18.04
2023-04-17T11:17:17.683Z,18.16
2023-04-17T11:20:26.515Z,17.77
2023-04-17T11:23:36.944Z,17.75
2023-04-17T11:26:47.453Z,18.11
2023-04-17T11:29:50.830Z,17.93
2023-04-17T11:32:54.266Z,18.28
2023-04-17T11:35:57.721Z,18.04
2023-04-17T11:39:01.229Z,17.49
2023-04-17T11:42:04.738Z,18.09
2023-04-17T11:45:08.818Z,17.06
2023-04-17T11:48:13.678Z,16.80
2023-04-17T11:51:19.452Z,16.74
2023-04-17T11:54:27.335Z,16.92
2023-04-17T11:57:30.654Z,17.16
2023-04-17T12:00:38.909Z,17.30
2023-04-17T12:03:44.809Z,17.67
2023-04-17T12:06:48.917Z,17.73
2023-04-17T12:10:00.898Z,18.18
2023-04-17T12:13:05.415Z,18.24
2023-04-17T12:16:11.805Z,18.31
2023-04-17T12:19:19.025Z,18.52
2023-04-17T12:22:25.684Z,19.37
2023-04-17T12:25:29.352Z,19.16
2023-04-17T12:28:32.988Z,19.29
2023-04-17T12:31:36.601Z,19.69
2023-04-17T12:34:40.306Z,20.18
2023-04-17T12:37:49.334Z,20.82
2023-04-17T12:40:55.373Z,20.90
2023-04-17T12:44:03.604Z,21.50
2023-04-17T12:47:07.545Z,21.43
2023-04-17T12:50:12.871Z,21.89
2023-04-17T12:53:18.597Z,22.48
2023-04-17T12:56:22.047Z,22.87
2023-04-17T12:59:25.631Z,23.24
2023-04-17T13:02:32.149Z,23.29
2023-04-17T13:05:35.873Z,23.70
2023-04-17T13:08:40.992Z,23.95
2023-04-17T13:11:44.354Z,24.31
2023-04-17T13:14:47.858Z,24.29
2023-04-17T13:17:53.138Z,24.22
2023-04-17T13:20:57.592Z,24.60
2023-04-17T13:24:01.299Z,24.51
2023-04-17T13:27:05.134Z,24.72
2023-04-17T13:30:09.157Z,24.97
2023-04-17T13:33:15.739Z,25.08
2023-04-17T13:36:28.034Z,25.22
2023-04-17T13:39:31.939Z,25.43
2023-04-17T13:42:35.620Z,25.56
2023-04-17T13:45:42.154Z,25.62
2023-04-17T13:48:45.962Z,25.35
2023-04-17T13:51:55.249Z,25.70
2023-04-17T13:55:23.440Z,25.50
2023-04-17T13:58:26.933Z,25.66
2023-04-17T14:01:30.745Z,25.63
2023-04-17T14:04:34.216Z,25.61
2023-04-17T14:07:40.994Z,25.71
2023-04-17T14:10:44.417Z,26.17
2023-04-17T14:13:47.754Z,26.17
2023-04-17T14:16:51.670Z,26.39
2023-04-17T14:19:54.933Z,25.96
2023-04-17T14:23:07.362Z,26.64
2023-04-17T14:26:14.917Z,26.70
2023-04-17T14:29:18.423Z,26.55
2023-04-17T14:32:21.832Z,27.18
2023-04-17T14:35:25.818Z,26.69
2023-04-17T14:38:29.132Z,26.19
2023-04-17T14:41:34.796Z,26.49
2023-04-17T14:44:38.114Z,26.19
2023-04-17T14:47:44.843Z,26.93
2023-04-17T14:50:48.464Z,26.63
2023-04-17T14:53:54.881Z,26.75
2023-04-17T14:56:58.571Z,26.28
2023-04-17T15:00:02.035Z,26.88
2023-04-17T15:03:05.576Z,26.86
2023-04-17T15:06:09.791Z,26.89
2023-04-17T15:09:18.775Z,26.96
2023-04-17T15:12:22.386Z,26.93
2023-04-17T15:15:25.677Z,26.87
2023-04-17T15:18:29.041Z,26.49
2023-04-17T15:21:32.329Z,26.82
2023-04-17T15:24:37.766Z,25.90
2023-04-17T15:27:41.044Z,26.26
2023-04-17T15:30:44.334Z,26.54
2023-04-17T15:33:48.238Z,25.64
2023-04-17T15:36:51.478Z,26.08
2023-04-17T15:39:54.784Z,25.89
2023-04-17T15:42:58.140Z,25.70
2023-04-17T15:46:02.840Z,25.70
2023-04-17T15:49:09.178Z,25.69
2023-04-17T15:52:12.812Z,25.69
2023-04-17T15:55:16.555Z,25.87
2023-04-17T15:58:20.374Z,25.88
2023-04-17T16:01:23.769Z,25.77
2023-04-17T16:04:30.180Z,25.91
2023-04-17T16:07:51.850Z,26.52
2023-04-17T16:10:55.149Z,26.38
2023-04-17T16:13:58.636Z,25.76
2023-04-17T16:17:02.179Z,26.14
2023-04-17T16:20:06.715Z,26.15
2023-04-17T16:23:10.255Z,25.90
2023-04-17T16:26:15.790Z,25.88
2023-04-17T16:29:19.131Z,25.99
2023-04-17T16:32:25.254Z,26.46
2023-04-17T16:35:30.550Z,26.11
2023-04-17T16:38:36.119Z,26.52
2023-04-17T16:41:39.697Z,26.21
2023-04-17T16:44:42.992Z,26.59
2023-04-17T16:47:46.549Z,27.04
2023-04-17T16:50:52.923Z,26.54
2023-04-17T16:53:56.269Z,26.99
2023-04-17T16:56:59.581Z,26.88
2023-04-17T17:00:03.374Z,26.95
2023-04-17T17:03:06.899Z,26.40
2023-04-17T17:06:13.540Z,26.64
2023-04-17T17:09:17.185Z,26.60
2023-04-17T17:12:20.695Z,26.81
2023-04-17T17:15:24.158Z,27.06
2023-04-17T17:18:27.505Z,27.57
2023-04-17T17:21:34.086Z,27.51
2023-04-17T17:24:37.444Z,27.89
2023-04-17T17:27:40.816Z,27.97
2023-04-17T17:30:44.213Z,28.70
2023-04-17T17:33:50.537Z,28.00
2023-04-17T17:36:53.863Z,28.77
2023-04-17T17:39:57.178Z,29.00
2023-04-17T17:43:03.423Z,29.53
2023-04-17T17:46:16.021Z,29.68
2023-04-17T17:49:19.540Z,30.15
2023-04-17T17:52:47.596Z,29.97
2023-04-17T17:55:55.537Z,29.69
2023-04-17T17:58:58.959Z,29.81
2023-04-17T18:02:02.628Z,30.18
2023-04-17T18:05:07.078Z,31.16
2023-04-17T18:08:36.608Z,30.20
2023-04-17T18:11:40.060Z,31.09
2023-04-17T18:14:43.414Z,30.46
2023-04-17T18:17:47.250Z,30.79
2023-04-17T18:20:51.193Z,31.05
2023-04-17T18:23:54.552Z,31.68
2023-04-17T18:26:57.912Z,32.35
2023-04-17T18:30:01.494Z,32.36
2023-04-17T18:33:04.958Z,32.31
2023-04-17T18:36:09.270Z,32.77
2023-04-17T18:39:14.939Z,32.94
2023-04-17T18:42:18.284Z,33.41
2023-04-17T18:45:22.200Z,33.79
2023-04-17T18:48:25.775Z,34.89
2023-04-17T18:51:29.192Z,35.50
2023-04-17T18:54:40.551Z,36.14
2023-04-17T18:57:45.572Z,35.26
2023-04-17T19:00:49.001Z,35.46
2023-04-17T19:04:17.193Z,35.27
2023-04-17T19:07:20.564Z,36.03
2023-04-17T19:10:27.674Z,36.36
2023-04-17T19:13:32.731Z,36.57
2023-04-17T19:16:36.136Z,36.42
2023-04-17T19:19:39.980Z,36.60
2023-04-17T19:22:43.804Z,35.45
2023-04-17T19:25:54.868Z,35.17
2023-04-17T19:29:23.180Z,35.08
2023-04-17T19:32:31.549Z,35.51
2023-04-17T19:35:35.315Z,36.02
2023-04-17T19:38:38.673Z,35.61
2023-04-17T19:41:43.406Z,36.62
2023-04-17T19:44:47.445Z,36.34
2023-04-17T19:48:16.280Z,36.56
2023-04-17T19:51:23.136Z,36.33
2023-04-17T19:54:29.908Z,36.73
2023-04-17T19:57:37.260Z,37.30
2023-04-17T20:00:43.715Z,37.88
2023-04-17T20:03:52.144Z,38.08
2023-04-17T20:06:59.582Z,38.25
2023-04-17T20:10:18.821Z,38.78
2023-04-17T20:13:25.700Z,38.71
2023-04-17T20:16:29.141Z,38.78
2023-04-17T20:19:35.622Z,38.51
2023-04-17T20:22:45.054Z,38.40
2023-04-17T20:25:48.812Z,39.44
2023-04-17T20:28:55.429Z,39.84
2023-04-17T20:32:00.057Z,39.87
2023-04-17T20:35:11.423Z,39.79
2023-04-17T20:38:16.881Z,40.76
2023-04-17T20:41:20.786Z,40.28
2023-04-17T20:44:49.665Z,39.87
2023-04-17T20:47:56.940Z,40.30
2023-04-17T20:51:06.325Z,41.00
2023-04-17T20:54:09.720Z,41.95
2023-04-17T20:57:13.109Z,41.74
2023-04-17T21:00:17.004Z,42.07
2023-04-17T21:03:20.814Z,42.50
2023-04-17T21:06:25.146Z,42.14
2023-04-17T21:09:53.401Z,43.10
2023-04-17T21:12:56.737Z,43.41
2023-04-17T21:16:03.120Z,43.54
2023-04-17T21:19:06.637Z,43.23
2023-04-17T21:22:11.497Z,42.78
2023-04-17T21:25:22.299Z,43.14
2023-04-17T21:28:28.507Z,42.61
2023-04-17T21:31:38.909Z,42.48
2023-04-17T21:35:07.805Z,42.79
2023-04-17T21:38:11.337Z,44.15
2023-04-17T21:41:14.841Z,43.97
2023-04-17T21:44:18.160Z,44.17
2023-04-17T21:47:21.726Z,43.87
2023-04-17T21:50:25.198Z,43.74
2023-04-17T21:53:28.581Z,42.98
2023-04-17T21:56:32.524Z,42.32
2023-04-17T21:59:36.273Z,42.03
2023-04-17T22:02:40.002Z,42.13
2023-04-17T22:05:43.537Z,41.40
2023-04-17T22:08:47.139Z,40.84
2023-04-17T22:11:51.178Z,40.19
2023-04-17T22:14:54.540Z,39.51
2023-04-17T22:17:59.624Z,39.55
2023-04-17T22:21:03.048Z,40.33
2023-04-17T22:24:06.674Z,39.99
2023-04-17T22:27:10.108Z,40.55
2023-04-17T22:30:14.352Z,38.87
2023-04-17T22:33:17.773Z,38.56
2023-04-17T22:36:21.168Z,37.59
2023-04-17T22:39:24.567Z,37.84
2023-04-17T22:42:28.046Z,37.66
2023-04-17T22:45:31.583Z,38.04
2023-04-17T22:48:37.611Z,36.87
2023-04-17T22:51:41.955Z,37.23
2023-04-17T22:54:45.501Z,37.91
2023-04-17T22:57:48.861Z,37.07
2023-04-17T23:01:17.938Z,36.64
2023-04-17T23:04:33.579Z,36.31
2023-04-17T23:07:37.166Z,36.69
2023-04-17T23:10:44.472Z,35.79
2023-04-17T23:13:48.245Z,35.62
2023-04-17T23:17:16.971Z,35.98
2023-04-17T23:20:25.943Z,33.17
2023-04-17T23:23:29.547Z,32.81
2023-04-17T23:26:35.350Z,34.51
2023-04-17T23:29:42.680Z,35.65
2023-04-17T23:32:51.486Z,34.18
2023-04-17T23:35:54.922Z,33.04
2023-04-17T23:38:58.336Z,32.35
2023-04-17T23:42:07.899Z,31.97
2023-04-17T23:45:11.844Z,32.35
2023-04-17T23:48:17.916Z,30.92
2023-04-17T23:51:21.707Z,30.34
2023-04-17T23:54:32.617Z,30.08
2023-04-17T23:57:38.559Z,29.80
